Terminal Aerodrome Forecast
Issued by NWS

Home | Current Version | Previous Version | Text Only | Print | Product List | Glossary On
Versions: 1 2 3 4 5 6 7 8 9 10 11 12 13 14 15 16 17 18 19 20 21 22 23 24 25 26 27 28
000
FTUS41 KBUF 172300
TAFJHW
TAF
KJHW 172332Z 1800/1824 33005KT P6SM SKC
     FM180600 24004KT 3SM BR FEW250
     FM180900 VRB03KT 2SM BR SCT250
     FM181500 VRB03KT P6SM BKN040
     FM181700 34007KT P6SM BKN020
     FM182200 36008KT P6SM BKN200
      AMD LTD TO CLD VIS AND WIND=

USA.gov is the U.S. government's official web portal to all federal, state and local government web resources and services.